Terminal Aerodrome Forecast
Issued by NWS

Home | Current Version | Previous Version | Text Only | Print | Product List | Glossary On
Versions: 1 2 3 4 5 6 7 8 9 10 11 12 13 14 15
000
FTUS46 KMTR 020520
TAFOAK
TAF
KOAK 020520Z 0206/0312 25008KT P6SM SCT012 BKN250
      TEMPO 0206/0210 BKN012 OVC250
     FM021000 24008KT P6SM SCT015 BKN250
      TEMPO 0210/0214 BKN012 OVC250
     FM021400 24009KT 6SM BR OVC014
     FM022100 27017G22KT P6SM FEW020 SCT250
     FM030300 29019G25KT P6SM BKN017=

USA.gov is the U.S. government's official web portal to all federal, state and local government web resources and services.